sensor_id;sensor_type;location;lat;lon;timestamp;P1;durP1;ratioP1;P2;durP2;ratioP2
8098;SDS011;4092;47.876;9.372;2022-09-01T00:01:43;11.20;;;6.97;;
8098;SDS011;4092;47.876;9.372;2022-09-01T00:04:14;10.13;;;7.20;;
8098;SDS011;4092;47.876;9.372;2022-09-01T00:06:43;11.80;;;8.20;;
8098;SDS011;4092;47.876;9.372;2022-09-01T00:09:12;15.63;;;8.23;;
8098;SDS011;4092;47.876;9.372;2022-09-01T00:11:42;13.30;;;8.07;;
8098;SDS011;4092;47.876;9.372;2022-09-01T00:14:11;14.53;;;9.20;;
8098;SDS011;4092;47.876;9.372;2022-09-01T00:16:39;16.37;;;10.17;;
8098;SDS011;4092;47.876;9.372;2022-09-01T00:19:06;18.53;;;10.07;;
8098;SDS011;4092;47.876;9.372;2022-09-01T00:21:35;14.23;;;9.47;;
8098;SDS011;4092;47.876;9.372;2022-09-01T00:24:04;20.47;;;9.30;;
8098;SDS011;4092;47.876;9.372;2022-09-01T00:26:32;18.43;;;10.30;;
8098;SDS011;4092;47.876;9.372;2022-09-01T00:29:00;20.43;;;10.17;;
8098;SDS011;4092;47.876;9.372;2022-09-01T00:31:27;15.80;;;9.47;;
8098;SDS011;4092;47.876;9.372;2022-09-01T00:33:54;16.67;;;11.13;;
8098;SDS011;4092;47.876;9.372;2022-09-01T00:36:21;22.43;;;12.60;;
8098;SDS011;4092;47.876;9.372;2022-09-01T00:38:49;20.80;;;11.00;;
8098;SDS011;4092;47.876;9.372;2022-09-01T00:41:17;16.97;;;10.53;;
8098;SDS011;4092;47.876;9.372;2022-09-01T00:43:47;18.70;;;10.70;;
8098;SDS011;4092;47.876;9.372;2022-09-01T00:46:18;16.27;;;9.57;;
8098;SDS011;4092;47.876;9.372;2022-09-01T00:48:46;13.53;;;8.40;;
8098;SDS011;4092;47.876;9.372;2022-09-01T00:51:18;16.03;;;9.00;;
8098;SDS011;4092;47.876;9.372;2022-09-01T00:53:46;19.77;;;8.80;;
8098;SDS011;4092;47.876;9.372;2022-09-01T00:56:13;19.67;;;9.20;;
8098;SDS011;4092;47.876;9.372;2022-09-01T00:58:41;13.50;;;8.93;;
8098;SDS011;4092;47.876;9.372;2022-09-01T01:01:09;17.73;;;10.00;;
8098;SDS011;4092;47.876;9.372;2022-09-01T01:03:38;16.87;;;8.93;;
8098;SDS011;4092;47.876;9.372;2022-09-01T01:06:11;17.97;;;10.53;;
8098;SDS011;4092;47.876;9.372;2022-09-01T01:08:41;19.13;;;10.70;;
8098;SDS011;4092;47.876;9.372;2022-09-01T01:11:22;16.53;;;9.57;;
8098;SDS011;4092;47.876;9.372;2022-09-01T01:13:52;18.87;;;9.80;;
8098;SDS011;4092;47.876;9.372;2022-09-01T01:16:21;17.27;;;9.80;;
8098;SDS011;4092;47.876;9.372;2022-09-01T01:18:51;16.93;;;9.87;;
8098;SDS011;4092;47.876;9.372;2022-09-01T01:21:21;19.70;;;11.07;;
8098;SDS011;4092;47.876;9.372;2022-09-01T01:24:17;19.53;;;9.83;;
8098;SDS011;4092;47.876;9.372;2022-09-01T01:26:47;21.27;;;12.30;;
8098;SDS011;4092;47.876;9.372;2022-09-01T01:29:14;18.83;;;10.00;;
8098;SDS011;4092;47.876;9.372;2022-09-01T01:31:43;15.67;;;10.20;;
8098;SDS011;4092;47.876;9.372;2022-09-01T01:34:11;17.30;;;9.17;;
8098;SDS011;4092;47.876;9.372;2022-09-01T01:36:39;18.57;;;10.30;;
8098;SDS011;4092;47.876;9.372;2022-09-01T01:39:07;17.10;;;9.80;;
8098;SDS011;4092;47.876;9.372;2022-09-01T01:41:38;17.37;;;10.07;;
8098;SDS011;4092;47.876;9.372;2022-09-01T01:44:09;21.33;;;10.43;;
8098;SDS011;4092;47.876;9.372;2022-09-01T01:46:39;19.90;;;10.73;;
8098;SDS011;4092;47.876;9.372;2022-09-01T01:49:08;12.70;;;8.00;;
8098;SDS011;4092;47.876;9.372;2022-09-01T01:51:37;17.77;;;10.40;;
8098;SDS011;4092;47.876;9.372;2022-09-01T01:54:05;17.00;;;9.80;;
8098;SDS011;4092;47.876;9.372;2022-09-01T01:56:32;15.87;;;10.10;;
8098;SDS011;4092;47.876;9.372;2022-09-01T01:59:05;19.83;;;9.30;;
8098;SDS011;4092;47.876;9.372;2022-09-01T02:01:34;17.60;;;9.07;;
8098;SDS011;4092;47.876;9.372;2022-09-01T02:04:03;14.13;;;8.87;;
8098;SDS011;4092;47.876;9.372;2022-09-01T02:06:31;21.50;;;8.50;;
8098;SDS011;4092;47.876;9.372;2022-09-01T02:08:59;13.67;;;9.00;;
8098;SDS011;4092;47.876;9.372;2022-09-01T02:11:27;14.00;;;8.60;;
8098;SDS011;4092;47.876;9.372;2022-09-01T02:13:57;13.70;;;9.17;;
8098;SDS011;4092;47.876;9.372;2022-09-01T02:16:27;14.80;;;8.70;;
8098;SDS011;4092;47.876;9.372;2022-09-01T02:18:57;14.70;;;10.63;;
8098;SDS011;4092;47.876;9.372;2022-09-01T02:21:24;14.50;;;8.93;;
8098;SDS011;4092;47.876;9.372;2022-09-01T02:23:53;13.57;;;6.70;;
8098;SDS011;4092;47.876;9.372;2022-09-01T02:26:24;12.30;;;7.40;;
8098;SDS011;4092;47.876;9.372;2022-09-01T02:28:55;16.47;;;9.53;;
8098;SDS011;4092;47.876;9.372;2022-09-01T02:31:27;11.93;;;7.50;;
8098;SDS011;4092;47.876;9.372;2022-09-01T02:33:56;13.73;;;9.20;;
8098;SDS011;4092;47.876;9.372;2022-09-01T02:36:25;17.37;;;10.83;;
8098;SDS011;4092;47.876;9.372;2022-09-01T02:38:52;14.60;;;8.30;;
8098;SDS011;4092;47.876;9.372;2022-09-01T02:41:20;16.63;;;9.40;;
8098;SDS011;4092;47.876;9.372;2022-09-01T02:43:49;16.33;;;9.10;;
8098;SDS011;4092;47.876;9.372;2022-09-01T02:46:16;12.50;;;8.03;;
8098;SDS011;4092;47.876;9.372;2022-09-01T02:48:48;17.13;;;9.60;;
8098;SDS011;4092;47.876;9.372;2022-09-01T02:51:19;13.93;;;9.43;;
8098;SDS011;4092;47.876;9.372;2022-09-01T02:53:49;13.10;;;7.17;;
8098;SDS011;4092;47.876;9.372;2022-09-01T02:56:17;12.97;;;7.40;;
8098;SDS011;4092;47.876;9.372;2022-09-01T02:58:47;17.20;;;8.67;;
8098;SDS011;4092;47.876;9.372;2022-09-01T03:01:16;14.90;;;9.40;;
8098;SDS011;4092;47.876;9.372;2022-09-01T03:03:46;13.40;;;8.00;;
8098;SDS011;4092;47.876;9.372;2022-09-01T03:06:16;14.50;;;7.63;;
8098;SDS011;4092;47.876;9.372;2022-09-01T03:08:45;12.13;;;8.07;;
8098;SDS011;4092;47.876;9.372;2022-09-01T03:11:12;17.27;;;8.50;;
8098;SDS011;4092;47.876;9.372;2022-09-01T03:13:40;13.40;;;7.50;;
8098;SDS011;4092;47.876;9.372;2022-09-01T03:16:08;9.50;;;6.70;;
8098;SDS011;4092;47.876;9.372;2022-09-01T03:18:35;9.83;;;5.80;;
8098;SDS011;4092;47.876;9.372;2022-09-01T03:21:05;13.80;;;7.43;;
8098;SDS011;4092;47.876;9.372;2022-09-01T03:23:34;13.17;;;6.10;;
8098;SDS011;4092;47.876;9.372;2022-09-01T03:26:03;14.43;;;7.63;;
8098;SDS011;4092;47.876;9.372;2022-09-01T03:28:30;10.40;;;7.00;;
8098;SDS011;4092;47.876;9.372;2022-09-01T03:30:57;13.90;;;6.30;;
8098;SDS011;4092;47.876;9.372;2022-09-01T03:33:25;10.40;;;6.70;;
8098;SDS011;4092;47.876;9.372;2022-09-01T03:35:53;8.93;;;5.77;;
8098;SDS011;4092;47.876;9.372;2022-09-01T03:38:23;11.30;;;6.13;;
8098;SDS011;4092;47.876;9.372;2022-09-01T03:40:51;9.20;;;6.50;;
8098;SDS011;4092;47.876;9.372;2022-09-01T03:43:23;10.57;;;6.77;;
8098;SDS011;4092;47.876;9.372;2022-09-01T03:45:51;12.13;;;7.47;;
8098;SDS011;4092;47.876;9.372;2022-09-01T03:48:20;11.13;;;6.40;;
8098;SDS011;4092;47.876;9.372;2022-09-01T03:50:50;13.13;;;6.80;;
8098;SDS011;4092;47.876;9.372;2022-09-01T03:53:18;15.87;;;7.60;;
8098;SDS011;4092;47.876;9.372;2022-09-01T03:55:48;10.13;;;6.30;;
8098;SDS011;4092;47.876;9.372;2022-09-01T03:58:17;12.43;;;7.00;;
8098;SDS011;4092;47.876;9.372;2022-09-01T04:00:46;11.90;;;6.60;;
8098;SDS011;4092;47.876;9.372;2022-09-01T04:03:16;10.07;;;6.80;;
8098;SDS011;4092;47.876;9.372;2022-09-01T04:05:46;14.33;;;7.20;;
8098;SDS011;4092;47.876;9.372;2022-09-01T04:08:15;13.23;;;8.50;;
8098;SDS011;4092;47.876;9.372;2022-09-01T04:10:43;14.60;;;7.47;;
8098;SDS011;4092;47.876;9.372;2022-09-01T04:13:15;14.07;;;8.20;;
8098;SDS011;4092;47.876;9.372;2022-09-01T04:15:43;9.03;;;6.67;;
8098;SDS011;4092;47.876;9.372;2022-09-01T04:18:10;13.87;;;8.53;;
8098;SDS011;4092;47.876;9.372;2022-09-01T04:20:45;13.73;;;7.50;;
8098;SDS011;4092;47.876;9.372;2022-09-01T04:23:14;20.07;;;8.80;;
8098;SDS011;4092;47.876;9.372;2022-09-01T04:25:45;12.73;;;7.70;;
8098;SDS011;4092;47.876;9.372;2022-09-01T04:28:16;17.50;;;8.40;;
8098;SDS011;4092;47.876;9.372;2022-09-01T04:30:52;12.33;;;7.63;;
8098;SDS011;4092;47.876;9.372;2022-09-01T04:33:22;13.40;;;7.73;;
8098;SDS011;4092;47.876;9.372;2022-09-01T04:35:50;16.60;;;9.27;;
8098;SDS011;4092;47.876;9.372;2022-09-01T04:38:21;18.37;;;8.30;;
8098;SDS011;4092;47.876;9.372;2022-09-01T04:40:52;12.93;;;7.13;;
8098;SDS011;4092;47.876;9.372;2022-09-01T04:43:26;11.20;;;7.83;;
8098;SDS011;4092;47.876;9.372;2022-09-01T04:45:56;15.80;;;8.50;;
8098;SDS011;4092;47.876;9.372;2022-09-01T04:48:23;12.27;;;7.57;;
8098;SDS011;4092;47.876;9.372;2022-09-01T04:50:51;14.57;;;8.10;;
8098;SDS011;4092;47.876;9.372;2022-09-01T04:53:20;14.30;;;9.13;;
8098;SDS011;4092;47.876;9.372;2022-09-01T04:55:49;13.47;;;6.50;;
8098;SDS011;4092;47.876;9.372;2022-09-01T04:58:17;15.30;;;7.50;;
8098;SDS011;4092;47.876;9.372;2022-09-01T05:00:48;12.30;;;7.63;;
8098;SDS011;4092;47.876;9.372;2022-09-01T05:03:17;11.13;;;7.50;;
8098;SDS011;4092;47.876;9.372;2022-09-01T05:05:46;11.40;;;6.83;;
8098;SDS011;4092;47.876;9.372;2022-09-01T05:08:13;12.17;;;8.27;;
8098;SDS011;4092;47.876;9.372;2022-09-01T05:10:42;12.53;;;7.80;;
8098;SDS011;4092;47.876;9.372;2022-09-01T05:13:12;11.47;;;6.93;;
8098;SDS011;4092;47.876;9.372;2022-09-01T05:15:41;13.23;;;6.00;;
8098;SDS011;4092;47.876;9.372;2022-09-01T05:18:14;11.23;;;6.47;;
8098;SDS011;4092;47.876;9.372;2022-09-01T05:20:47;12.67;;;7.30;;
8098;SDS011;4092;47.876;9.372;2022-09-01T05:23:16;13.77;;;8.80;;
8098;SDS011;4092;47.876;9.372;2022-09-01T05:25:49;11.13;;;6.03;;
8098;SDS011;4092;47.876;9.372;2022-09-01T05:28:19;13.53;;;7.93;;
8098;SDS011;4092;47.876;9.372;2022-09-01T05:30:49;13.83;;;9.10;;
8098;SDS011;4092;47.876;9.372;2022-09-01T05:33:19;13.97;;;7.27;;
8098;SDS011;4092;47.876;9.372;2022-09-01T05:35:51;13.37;;;7.60;;
8098;SDS011;4092;47.876;9.372;2022-09-01T05:38:20;12.87;;;7.40;;
8098;SDS011;4092;47.876;9.372;2022-09-01T05:40:54;16.50;;;7.60;;
8098;SDS011;4092;47.876;9.372;2022-09-01T05:43:22;19.93;;;7.07;;
8098;SDS011;4092;47.876;9.372;2022-09-01T05:45:51;10.53;;;7.17;;
8098;SDS011;4092;47.876;9.372;2022-09-01T05:48:21;11.83;;;7.70;;
8098;SDS011;4092;47.876;9.372;2022-09-01T05:50:48;13.50;;;7.13;;
8098;SDS011;4092;47.876;9.372;2022-09-01T05:53:20;15.60;;;8.97;;
8098;SDS011;4092;47.876;9.372;2022-09-01T05:55:49;20.07;;;8.37;;
8098;SDS011;4092;47.876;9.372;2022-09-01T05:58:21;12.87;;;8.70;;
8098;SDS011;4092;47.876;9.372;2022-09-01T06:00:50;13.30;;;7.37;;
8098;SDS011;4092;47.876;9.372;2022-09-01T06:03:21;19.13;;;8.87;;
8098;SDS011;4092;47.876;9.372;2022-09-01T06:05:48;10.23;;;6.60;;
8098;SDS011;4092;47.876;9.372;2022-09-01T06:08:17;14.70;;;8.80;;
8098;SDS011;4092;47.876;9.372;2022-09-01T06:10:45;14.23;;;7.23;;
8098;SDS011;4092;47.876;9.372;2022-09-01T06:13:14;13.37;;;7.73;;
8098;SDS011;4092;47.876;9.372;2022-09-01T06:15:46;13.83;;;7.23;;
8098;SDS011;4092;47.876;9.372;2022-09-01T06:18:14;11.30;;;6.90;;
8098;SDS011;4092;47.876;9.372;2022-09-01T06:20:45;14.27;;;8.27;;
8098;SDS011;4092;47.876;9.372;2022-09-01T06:23:13;10.83;;;7.00;;
8098;SDS011;4092;47.876;9.372;2022-09-01T06:25:43;8.60;;;5.60;;
8098;SDS011;4092;47.876;9.372;2022-09-01T06:28:11;14.30;;;6.83;;
8098;SDS011;4092;47.876;9.372;2022-09-01T06:30:39;10.33;;;7.03;;
8098;SDS011;4092;47.876;9.372;2022-09-01T06:33:09;11.27;;;5.10;;
8098;SDS011;4092;47.876;9.372;2022-09-01T06:35:38;18.03;;;7.23;;
8098;SDS011;4092;47.876;9.372;2022-09-01T06:38:07;9.70;;;6.37;;
8098;SDS011;4092;47.876;9.372;2022-09-01T06:40:36;12.60;;;6.00;;
8098;SDS011;4092;47.876;9.372;2022-09-01T06:43:05;9.17;;;5.60;;
8098;SDS011;4092;47.876;9.372;2022-09-01T06:45:32;8.20;;;5.83;;
8098;SDS011;4092;47.876;9.372;2022-09-01T06:48:05;8.80;;;5.37;;
8098;SDS011;4092;47.876;9.372;2022-09-01T06:50:32;11.13;;;5.13;;
8098;SDS011;4092;47.876;9.372;2022-09-01T06:52:59;13.43;;;6.13;;
8098;SDS011;4092;47.876;9.372;2022-09-01T06:55:37;13.23;;;5.50;;
8098;SDS011;4092;47.876;9.372;2022-09-01T06:58:06;6.23;;;4.23;;
8098;SDS011;4092;47.876;9.372;2022-09-01T07:00:36;6.90;;;4.20;;
8098;SDS011;4092;47.876;9.372;2022-09-01T07:03:06;9.23;;;4.50;;
8098;SDS011;4092;47.876;9.372;2022-09-01T07:05:34;8.53;;;6.20;;
8098;SDS011;4092;47.876;9.372;2022-09-01T07:08:04;6.57;;;4.70;;
8098;SDS011;4092;47.876;9.372;2022-09-01T07:10:38;11.13;;;6.53;;
8098;SDS011;4092;47.876;9.372;2022-09-01T07:13:09;7.17;;;4.83;;
8098;SDS011;4092;47.876;9.372;2022-09-01T07:15:44;6.73;;;4.77;;
8098;SDS011;4092;47.876;9.372;2022-09-01T07:18:14;8.63;;;4.63;;
8098;SDS011;4092;47.876;9.372;2022-09-01T07:20:42;7.00;;;4.53;;
8098;SDS011;4092;47.876;9.372;2022-09-01T07:23:12;9.17;;;6.10;;
8098;SDS011;4092;47.876;9.372;2022-09-01T07:25:42;5.63;;;3.90;;
8098;SDS011;4092;47.876;9.372;2022-09-01T07:28:11;5.00;;;4.37;;
8098;SDS011;4092;47.876;9.372;2022-09-01T07:30:40;8.07;;;4.47;;
8098;SDS011;4092;47.876;9.372;2022-09-01T07:33:09;6.97;;;4.57;;
8098;SDS011;4092;47.876;9.372;2022-09-01T07:35:37;6.77;;;4.57;;
8098;SDS011;4092;47.876;9.372;2022-09-01T07:38:06;6.00;;;4.00;;
8098;SDS011;4092;47.876;9.372;2022-09-01T07:40:34;9.07;;;4.33;;
8098;SDS011;4092;47.876;9.372;2022-09-01T07:43:04;9.50;;;5.03;;
8098;SDS011;4092;47.876;9.372;2022-09-01T07:45:34;7.77;;;4.50;;
8098;SDS011;4092;47.876;9.372;2022-09-01T07:48:04;6.97;;;4.97;;
8098;SDS011;4092;47.876;9.372;2022-09-01T07:50:32;11.80;;;5.07;;
8098;SDS011;4092;47.876;9.372;2022-09-01T07:53:01;7.07;;;4.07;;
8098;SDS011;4092;47.876;9.372;2022-09-01T07:55:29;5.87;;;3.70;;
8098;SDS011;4092;47.876;9.372;2022-09-01T07:57:56;4.70;;;3.83;;
8098;SDS011;4092;47.876;9.372;2022-09-01T08:00:25;4.53;;;4.10;;
8098;SDS011;4092;47.876;9.372;2022-09-01T08:02:52;7.03;;;3.60;;
8098;SDS011;4092;47.876;9.372;2022-09-01T08:05:20;10.80;;;4.37;;
8098;SDS011;4092;47.876;9.372;2022-09-01T08:07:51;5.90;;;3.70;;
8098;SDS011;4092;47.876;9.372;2022-09-01T08:10:18;4.77;;;3.30;;
8098;SDS011;4092;47.876;9.372;2022-09-01T08:12:45;7.23;;;4.43;;
8098;SDS011;4092;47.876;9.372;2022-09-01T08:15:13;5.90;;;4.03;;
8098;SDS011;4092;47.876;9.372;2022-09-01T08:17:43;6.17;;;3.60;;
8098;SDS011;4092;47.876;9.372;2022-09-01T08:20:10;4.17;;;2.20;;
8098;SDS011;4092;47.876;9.372;2022-09-01T08:22:37;5.23;;;3.40;;
8098;SDS011;4092;47.876;9.372;2022-09-01T08:25:05;4.07;;;2.70;;
8098;SDS011;4092;47.876;9.372;2022-09-01T08:27:34;6.57;;;4.00;;
8098;SDS011;4092;47.876;9.372;2022-09-01T08:30:03;5.63;;;3.47;;
8098;SDS011;4092;47.876;9.372;2022-09-01T08:32:33;5.63;;;3.50;;
8098;SDS011;4092;47.876;9.372;2022-09-01T08:35:02;5.23;;;3.10;;
8098;SDS011;4092;47.876;9.372;2022-09-01T08:37:29;5.13;;;3.77;;
8098;SDS011;4092;47.876;9.372;2022-09-01T08:39:57;6.10;;;3.80;;
8098;SDS011;4092;47.876;9.372;2022-09-01T08:42:30;3.93;;;3.20;;
8098;SDS011;4092;47.876;9.372;2022-09-01T08:45:10;5.80;;;3.30;;
8098;SDS011;4092;47.876;9.372;2022-09-01T08:47:45;8.13;;;4.10;;
8098;SDS011;4092;47.876;9.372;2022-09-01T08:50:14;5.13;;;3.43;;
8098;SDS011;4092;47.876;9.372;2022-09-01T08:52:42;4.30;;;3.10;;
8098;SDS011;4092;47.876;9.372;2022-09-01T08:55:13;3.40;;;2.97;;
8098;SDS011;4092;47.876;9.372;2022-09-01T08:57:45;3.00;;;2.63;;
8098;SDS011;4092;47.876;9.372;2022-09-01T09:00:16;3.60;;;2.97;;
8098;SDS011;4092;47.876;9.372;2022-09-01T09:02:52;5.53;;;3.33;;
8098;SDS011;4092;47.876;9.372;2022-09-01T09:05:32;3.60;;;2.60;;
8098;SDS011;4092;47.876;9.372;2022-09-01T09:08:17;5.40;;;3.87;;
8098;SDS011;4092;47.876;9.372;2022-09-01T09:10:56;4.43;;;2.70;;
8098;SDS011;4092;47.876;9.372;2022-09-01T09:13:29;5.47;;;3.20;;
8098;SDS011;4092;47.876;9.372;2022-09-01T09:16:05;3.87;;;2.93;;
8098;SDS011;4092;47.876;9.372;2022-09-01T09:18:37;5.30;;;3.20;;
8098;SDS011;4092;47.876;9.372;2022-09-01T09:21:11;3.30;;;3.00;;
8098;SDS011;4092;47.876;9.372;2022-09-01T09:23:42;5.37;;;3.70;;
8098;SDS011;4092;47.876;9.372;2022-09-01T09:26:13;4.03;;;3.27;;
8098;SDS011;4092;47.876;9.372;2022-09-01T09:28:44;4.77;;;3.20;;
8098;SDS011;4092;47.876;9.372;2022-09-01T09:31:30;3.30;;;2.50;;
8098;SDS011;4092;47.876;9.372;2022-09-01T09:34:00;4.03;;;2.37;;
8098;SDS011;4092;47.876;9.372;2022-09-01T09:36:30;3.10;;;2.60;;
8098;SDS011;4092;47.876;9.372;2022-09-01T09:39:02;5.00;;;3.70;;
8098;SDS011;4092;47.876;9.372;2022-09-01T09:41:31;3.73;;;2.57;;
8098;SDS011;4092;47.876;9.372;2022-09-01T09:43:59;2.97;;;2.47;;
8098;SDS011;4092;47.876;9.372;2022-09-01T09:46:32;3.13;;;2.83;;
8098;SDS011;4092;47.876;9.372;2022-09-01T09:49:06;6.20;;;2.80;;
8098;SDS011;4092;47.876;9.372;2022-09-01T09:51:47;2.60;;;2.13;;
8098;SDS011;4092;47.876;9.372;2022-09-01T09:54:17;2.93;;;2.40;;
8098;SDS011;4092;47.876;9.372;2022-09-01T09:56:47;2.60;;;2.33;;
8098;SDS011;4092;47.876;9.372;2022-09-01T09:59:27;3.53;;;2.63;;
8098;SDS011;4092;47.876;9.372;2022-09-01T10:01:57;5.53;;;2.00;;
8098;SDS011;4092;47.876;9.372;2022-09-01T10:04:31;4.83;;;2.77;;
8098;SDS011;4092;47.876;9.372;2022-09-01T10:07:04;7.50;;;2.83;;
8098;SDS011;4092;47.876;9.372;2022-09-01T10:09:55;5.73;;;2.60;;
8098;SDS011;4092;47.876;9.372;2022-09-01T10:12:24;2.60;;;2.27;;
8098;SDS011;4092;47.876;9.372;2022-09-01T10:14:53;5.70;;;2.33;;
8098;SDS011;4092;47.876;9.372;2022-09-01T10:17:24;4.67;;;2.40;;
8098;SDS011;4092;47.876;9.372;2022-09-01T10:19:58;3.23;;;2.43;;
8098;SDS011;4092;47.876;9.372;2022-09-01T10:22:31;3.53;;;2.67;;
8098;SDS011;4092;47.876;9.372;2022-09-01T10:25:00;3.00;;;2.40;;
8098;SDS011;4092;47.876;9.372;2022-09-01T10:27:28;2.43;;;2.23;;
8098;SDS011;4092;47.876;9.372;2022-09-01T10:30:02;2.03;;;1.80;;
8098;SDS011;4092;47.876;9.372;2022-09-01T10:32:33;4.00;;;2.63;;
8098;SDS011;4092;47.876;9.372;2022-09-01T10:35:05;4.23;;;2.97;;
8098;SDS011;4092;47.876;9.372;2022-09-01T10:37:37;3.93;;;2.10;;
8098;SDS011;4092;47.876;9.372;2022-09-01T10:40:09;2.90;;;2.60;;
8098;SDS011;4092;47.876;9.372;2022-09-01T10:42:45;2.73;;;2.43;;
8098;SDS011;4092;47.876;9.372;2022-09-01T10:45:28;3.20;;;2.33;;
8098;SDS011;4092;47.876;9.372;2022-09-01T10:48:04;2.53;;;2.33;;
8098;SDS011;4092;47.876;9.372;2022-09-01T10:50:50;2.50;;;2.20;;
8098;SDS011;4092;47.876;9.372;2022-09-01T10:53:38;3.87;;;2.60;;
8098;SDS011;4092;47.876;9.372;2022-09-01T10:56:06;2.20;;;2.00;;
8098;SDS011;4092;47.876;9.372;2022-09-01T10:58:42;2.60;;;2.40;;
8098;SDS011;4092;47.876;9.372;2022-09-01T11:01:14;6.33;;;3.07;;
8098;SDS011;4092;47.876;9.372;2022-09-01T11:03:49;1.80;;;1.63;;
8098;SDS011;4092;47.876;9.372;2022-09-01T11:06:32;3.97;;;1.50;;
8098;SDS011;4092;47.876;9.372;2022-09-01T11:09:20;5.03;;;3.53;;
8098;SDS011;4092;47.876;9.372;2022-09-01T11:11:50;3.20;;;2.17;;
8098;SDS011;4092;47.876;9.372;2022-09-01T11:14:48;2.37;;;2.07;;
8098;SDS011;4092;47.876;9.372;2022-09-01T11:17:19;2.93;;;2.00;;
8098;SDS011;4092;47.876;9.372;2022-09-01T11:22:35;5.60;;;2.30;;
8098;SDS011;4092;47.876;9.372;2022-09-01T11:31:18;1.90;;;1.70;;
8098;SDS011;4092;47.876;9.372;2022-09-01T11:36:53;2.53;;;2.33;;
8098;SDS011;4092;47.876;9.372;2022-09-01T11:39:35;3.40;;;1.87;;
8098;SDS011;4092;47.876;9.372;2022-09-01T11:42:08;3.27;;;1.93;;
8098;SDS011;4092;47.876;9.372;2022-09-01T11:44:40;3.60;;;2.20;;
8098;SDS011;4092;47.876;9.372;2022-09-01T11:47:13;3.73;;;2.13;;
8098;SDS011;4092;47.876;9.372;2022-09-01T11:49:48;3.23;;;1.87;;
8098;SDS011;4092;47.876;9.372;2022-09-01T11:52:18;2.60;;;1.90;;
8098;SDS011;4092;47.876;9.372;2022-09-01T11:54:47;4.80;;;2.60;;
8098;SDS011;4092;47.876;9.372;2022-09-01T11:57:17;2.57;;;2.37;;
8098;SDS011;4092;47.876;9.372;2022-09-01T11:59:47;3.63;;;2.20;;
8098;SDS011;4092;47.876;9.372;2022-09-01T12:02:19;3.30;;;2.40;;
8098;SDS011;4092;47.876;9.372;2022-09-01T12:04:49;7.80;;;2.80;;
8098;SDS011;4092;47.876;9.372;2022-09-01T12:07:24;2.93;;;2.63;;
8098;SDS011;4092;47.876;9.372;2022-09-01T12:09:55;3.93;;;2.20;;
8098;SDS011;4092;47.876;9.372;2022-09-01T12:12:34;4.43;;;2.87;;
8098;SDS011;4092;47.876;9.372;2022-09-01T12:15:03;4.10;;;2.90;;
8098;SDS011;4092;47.876;9.372;2022-09-01T12:17:33;3.20;;;2.60;;
8098;SDS011;4092;47.876;9.372;2022-09-01T12:20:20;2.80;;;2.47;;
8098;SDS011;4092;47.876;9.372;2022-09-01T12:22:50;3.80;;;2.43;;
8098;SDS011;4092;47.876;9.372;2022-09-01T12:25:18;2.80;;;2.50;;
8098;SDS011;4092;47.876;9.372;2022-09-01T12:27:49;3.30;;;2.07;;
8098;SDS011;4092;47.876;9.372;2022-09-01T12:30:16;5.03;;;2.13;;
8098;SDS011;4092;47.876;9.372;2022-09-01T12:32:44;3.50;;;1.90;;
8098;SDS011;4092;47.876;9.372;2022-09-01T12:35:13;3.20;;;2.70;;
8098;SDS011;4092;47.876;9.372;2022-09-01T12:37:43;5.90;;;2.10;;
8098;SDS011;4092;47.876;9.372;2022-09-01T12:40:21;3.23;;;2.70;;
8098;SDS011;4092;47.876;9.372;2022-09-01T12:42:52;3.50;;;2.37;;
8098;SDS011;4092;47.876;9.372;2022-09-01T12:45:38;3.43;;;3.13;;
8098;SDS011;4092;47.876;9.372;2022-09-01T12:48:18;2.40;;;2.03;;
8098;SDS011;4092;47.876;9.372;2022-09-01T12:50:49;3.00;;;2.30;;
8098;SDS011;4092;47.876;9.372;2022-09-01T12:53:19;4.20;;;2.27;;
8098;SDS011;4092;47.876;9.372;2022-09-01T12:55:54;3.00;;;2.13;;
8098;SDS011;4092;47.876;9.372;2022-09-01T12:59:07;2.97;;;2.23;;
8098;SDS011;4092;47.876;9.372;2022-09-01T13:01:37;2.43;;;2.23;;
8098;SDS011;4092;47.876;9.372;2022-09-01T13:04:09;2.60;;;2.37;;
8098;SDS011;4092;47.876;9.372;2022-09-01T13:06:48;3.40;;;2.40;;
8098;SDS011;4092;47.876;9.372;2022-09-01T13:09:16;3.07;;;2.77;;
8098;SDS011;4092;47.876;9.372;2022-09-01T13:11:43;2.23;;;1.83;;
8098;SDS011;4092;47.876;9.372;2022-09-01T13:14:13;3.37;;;2.23;;
8098;SDS011;4092;47.876;9.372;2022-09-01T13:16:41;3.93;;;2.80;;
8098;SDS011;4092;47.876;9.372;2022-09-01T13:19:08;3.70;;;2.53;;
8098;SDS011;4092;47.876;9.372;2022-09-01T13:21:36;3.17;;;2.87;;
8098;SDS011;4092;47.876;9.372;2022-09-01T13:24:04;3.37;;;2.17;;
8098;SDS011;4092;47.876;9.372;2022-09-01T13:26:32;4.80;;;2.90;;
8098;SDS011;4092;47.876;9.372;2022-09-01T13:28:59;3.07;;;2.77;;
8098;SDS011;4092;47.876;9.372;2022-09-01T13:31:28;2.17;;;1.97;;
8098;SDS011;4092;47.876;9.372;2022-09-01T13:33:55;2.93;;;2.20;;
8098;SDS011;4092;47.876;9.372;2022-09-01T13:36:23;5.50;;;2.20;;
8098;SDS011;4092;47.876;9.372;2022-09-01T13:38:50;4.13;;;2.20;;
8098;SDS011;4092;47.876;9.372;2022-09-01T13:41:17;2.43;;;2.23;;
8098;SDS011;4092;47.876;9.372;2022-09-01T13:43:44;3.60;;;2.50;;
8098;SDS011;4092;47.876;9.372;2022-09-01T13:46:12;3.70;;;2.50;;
8098;SDS011;4092;47.876;9.372;2022-09-01T13:48:40;8.53;;;2.17;;
8098;SDS011;4092;47.876;9.372;2022-09-01T13:51:07;2.70;;;2.10;;
8098;SDS011;4092;47.876;9.372;2022-09-01T13:53:35;7.33;;;4.03;;
8098;SDS011;4092;47.876;9.372;2022-09-01T13:56:02;3.27;;;2.93;;
8098;SDS011;4092;47.876;9.372;2022-09-01T13:58:29;2.90;;;2.23;;
8098;SDS011;4092;47.876;9.372;2022-09-01T14:00:56;4.53;;;2.50;;
8098;SDS011;4092;47.876;9.372;2022-09-01T14:03:24;4.20;;;2.80;;
8098;SDS011;4092;47.876;9.372;2022-09-01T14:05:52;4.27;;;2.80;;
8098;SDS011;4092;47.876;9.372;2022-09-01T14:08:20;2.37;;;2.00;;
8098;SDS011;4092;47.876;9.372;2022-09-01T14:10:48;4.20;;;3.20;;
8098;SDS011;4092;47.876;9.372;2022-09-01T14:13:17;2.10;;;1.90;;
8098;SDS011;4092;47.876;9.372;2022-09-01T14:15:45;4.40;;;2.10;;
8098;SDS011;4092;47.876;9.372;2022-09-01T14:18:13;2.40;;;2.20;;
8098;SDS011;4092;47.876;9.372;2022-09-01T14:20:41;2.37;;;1.90;;
8098;SDS011;4092;47.876;9.372;2022-09-01T14:23:12;3.87;;;2.30;;
8098;SDS011;4092;47.876;9.372;2022-09-01T14:25:41;2.73;;;2.23;;
8098;SDS011;4092;47.876;9.372;2022-09-01T14:28:09;2.67;;;2.20;;
8098;SDS011;4092;47.876;9.372;2022-09-01T14:30:37;2.90;;;2.60;;
8098;SDS011;4092;47.876;9.372;2022-09-01T14:33:06;7.30;;;3.07;;
8098;SDS011;4092;47.876;9.372;2022-09-01T14:35:36;3.23;;;2.57;;
8098;SDS011;4092;47.876;9.372;2022-09-01T14:38:04;2.43;;;2.20;;
8098;SDS011;4092;47.876;9.372;2022-09-01T14:40:34;3.23;;;2.93;;
8098;SDS011;4092;47.876;9.372;2022-09-01T14:43:03;2.20;;;1.93;;
8098;SDS011;4092;47.876;9.372;2022-09-01T14:45:31;4.30;;;2.33;;
8098;SDS011;4092;47.876;9.372;2022-09-01T14:47:58;2.60;;;2.40;;
8098;SDS011;4092;47.876;9.372;2022-09-01T14:50:26;2.60;;;2.20;;
8098;SDS011;4092;47.876;9.372;2022-09-01T14:52:57;2.60;;;2.10;;
8098;SDS011;4092;47.876;9.372;2022-09-01T14:55:25;1.77;;;1.53;;
8098;SDS011;4092;47.876;9.372;2022-09-01T14:57:55;2.40;;;2.13;;
8098;SDS011;4092;47.876;9.372;2022-09-01T15:00:23;3.53;;;1.83;;
8098;SDS011;4092;47.876;9.372;2022-09-01T15:02:51;3.60;;;2.67;;
8098;SDS011;4092;47.876;9.372;2022-09-01T15:05:19;3.70;;;2.20;;
8098;SDS011;4092;47.876;9.372;2022-09-01T15:07:47;2.70;;;2.37;;
8098;SDS011;4092;47.876;9.372;2022-09-01T15:10:16;2.63;;;2.00;;
8098;SDS011;4092;47.876;9.372;2022-09-01T15:12:45;4.30;;;1.93;;
8098;SDS011;4092;47.876;9.372;2022-09-01T15:15:15;2.47;;;1.97;;
8098;SDS011;4092;47.876;9.372;2022-09-01T15:17:43;2.60;;;2.37;;
8098;SDS011;4092;47.876;9.372;2022-09-01T15:20:11;2.40;;;2.20;;
8098;SDS011;4092;47.876;9.372;2022-09-01T15:22:57;3.13;;;2.17;;
8098;SDS011;4092;47.876;9.372;2022-09-01T15:25:24;1.50;;;1.40;;
8098;SDS011;4092;47.876;9.372;2022-09-01T15:27:51;2.30;;;2.00;;
8098;SDS011;4092;47.876;9.372;2022-09-01T15:30:20;2.53;;;2.13;;
8098;SDS011;4092;47.876;9.372;2022-09-01T15:32:47;4.17;;;2.47;;
8098;SDS011;4092;47.876;9.372;2022-09-01T15:35:16;2.03;;;1.70;;
8098;SDS011;4092;47.876;9.372;2022-09-01T15:37:44;3.23;;;2.10;;
8098;SDS011;4092;47.876;9.372;2022-09-01T15:40:12;3.60;;;2.00;;